Portada
METAR-TAF:

METAR-TAF

Aeroports :

Heringsdorf, Alemanya

latitud: 53-53N, longitud: 014-09E, altitud: 28 m

Observació

L'informe es va fer fa 34 minuts, a les 08:50 UTC
Vent 7 kt del Sud, variant entre Est/Sud-Est i Sud/Sud-Oest
Temperatura 16°C
Humitat 51%
Pressió 1009 hPa
Visibilitat 10 km o més
sense núvols per sota de 1500 mi sense presència de cumulonimbus.

METAR: EDAH 030850Z 17007KT 120V200 CAVOK 16/06 Q1009

Hora: 11:24 (09:24 UTC)

Pronòstic

L'informe es va fer fa 1 hora i 24 minuts, a les 08:00 UTC
Pronòstic vàlid del 03 a les 09 UTC al 03 a les 18 UTC
Vent 6 kt del Est/Nord-Est
Visibilitat 10 km o més
sense núvols per sota de 1500 mi sense presència de cumulonimbus.
Evolucionant progressivament
l' 03 a les 11 UTC al 03 a les 13 UTC
Vent 11 kt del Nord-Est

TAF: EDAH 030800Z 0309/0318 07006KT CAVOK BECMG 0311/0313 05011KT

Observacions i pronòstics meteorològics de més de 4000 aeroports (METAR i TAF).

Les estacions disponibles són els punts grocs i vermells al mapa.

Posi el ratolí al punt desitjat per veure el nom de l'estació.

Feu clic per veure les observacions i els pronòstics meteorològics.

Per canviar el mapa: feu clic els botons verds amb una creu de color negre per apropar; al botó verd amb un guió per allunyar la imatge; o en les fletxes verdes per a mapes adjacents.


METAR-TAF: